sensor_id;sensor_type;location;lat;lon;timestamp;P1;P2;P0
73973;PMS5003;62336;-26.094;27.994;2023-03-04T00:01:04;43;38;
73973;PMS5003;62336;-26.094;27.994;2023-03-04T00:03:29;37;36;
73973;PMS5003;62336;-26.094;27.994;2023-03-04T00:05:55;42;36;
73973;PMS5003;62336;-26.094;27.994;2023-03-04T00:08:20;36;36;
73973;PMS5003;62336;-26.094;27.994;2023-03-04T00:10:45;33;32;
73973;PMS5003;62336;-26.094;27.994;2023-03-04T00:13:10;39;35;
73973;PMS5003;62336;-26.094;27.994;2023-03-04T00:15:36;37;35;
73973;PMS5003;62336;-26.094;27.994;2023-03-04T00:18:03;33;33;
73973;PMS5003;62336;-26.094;27.994;2023-03-04T00:20:26;38;33;
73973;PMS5003;62336;-26.094;27.994;2023-03-04T00:22:51;36;33;
73973;PMS5003;62336;-26.094;27.994;2023-03-04T00:25:16;40;38;
73973;PMS5003;62336;-26.094;27.994;2023-03-04T00:27:42;36;35;
73973;PMS5003;62336;-26.094;27.994;2023-03-04T00:30:07;38;36;
73973;PMS5003;62336;-26.094;27.994;2023-03-04T00:32:32;38;37;
73973;PMS5003;62336;-26.094;27.994;2023-03-04T00:34:57;39;37;
73973;PMS5003;62336;-26.094;27.994;2023-03-04T00:37:23;37;35;
73973;PMS5003;62336;-26.094;27.994;2023-03-04T00:39:48;34;34;
73973;PMS5003;62336;-26.094;27.994;2023-03-04T00:42:13;38;37;
73973;PMS5003;62336;-26.094;27.994;2023-03-04T00:44:38;46;45;
73973;PMS5003;62336;-26.094;27.994;2023-03-04T00:47:04;39;36;
73973;PMS5003;62336;-26.094;27.994;2023-03-04T00:49:29;41;39;
73973;PMS5003;62336;-26.094;27.994;2023-03-04T00:51:54;42;38;
73973;PMS5003;62336;-26.094;27.994;2023-03-04T00:54:20;35;33;
73973;PMS5003;62336;-26.094;27.994;2023-03-04T00:56:45;36;35;
73973;PMS5003;62336;-26.094;27.994;2023-03-04T00:59:11;44;41;
73973;PMS5003;62336;-26.094;27.994;2023-03-04T01:01:37;40;37;
73973;PMS5003;62336;-26.094;27.994;2023-03-04T01:04:02;31;30;
73973;PMS5003;62336;-26.094;27.994;2023-03-04T01:06:28;36;35;
73973;PMS5003;62336;-26.094;27.994;2023-03-04T01:08:53;38;35;
73973;PMS5003;62336;-26.094;27.994;2023-03-04T01:11:18;42;39;
73973;PMS5003;62336;-26.094;27.994;2023-03-04T01:13:44;46;41;
73973;PMS5003;62336;-26.094;27.994;2023-03-04T01:16:09;42;40;
73973;PMS5003;62336;-26.094;27.994;2023-03-04T01:18:34;38;36;
73973;PMS5003;62336;-26.094;27.994;2023-03-04T01:20:59;40;38;
73973;PMS5003;62336;-26.094;27.994;2023-03-04T01:23:24;45;42;
73973;PMS5003;62336;-26.094;27.994;2023-03-04T01:25:49;38;35;
73973;PMS5003;62336;-26.094;27.994;2023-03-04T01:28:15;46;44;
73973;PMS5003;62336;-26.094;27.994;2023-03-04T01:30:40;46;43;
73973;PMS5003;62336;-26.094;27.994;2023-03-04T01:33:05;43;41;
73973;PMS5003;62336;-26.094;27.994;2023-03-04T01:35:31;45;40;
73973;PMS5003;62336;-26.094;27.994;2023-03-04T01:37:55;42;40;
73973;PMS5003;62336;-26.094;27.994;2023-03-04T01:40:21;46;41;
73973;PMS5003;62336;-26.094;27.994;2023-03-04T01:42:47;46;43;
73973;PMS5003;62336;-26.094;27.994;2023-03-04T01:45:12;45;43;
73973;PMS5003;62336;-26.094;27.994;2023-03-04T01:47:37;47;46;
73973;PMS5003;62336;-26.094;27.994;2023-03-04T01:50:03;45;42;
73973;PMS5003;62336;-26.094;27.994;2023-03-04T01:52:27;44;42;
73973;PMS5003;62336;-26.094;27.994;2023-03-04T01:54:52;45;42;
73973;PMS5003;62336;-26.094;27.994;2023-03-04T01:57:19;44;42;
73973;PMS5003;62336;-26.094;27.994;2023-03-04T01:59:43;47;46;
73973;PMS5003;62336;-26.094;27.994;2023-03-04T02:02:08;49;48;
73973;PMS5003;62336;-26.094;27.994;2023-03-04T02:04:35;49;46;
73973;PMS5003;62336;-26.094;27.994;2023-03-04T02:07:00;55;52;
73973;PMS5003;62336;-26.094;27.994;2023-03-04T02:09:25;53;45;
73973;PMS5003;62336;-26.094;27.994;2023-03-04T02:11:51;46;45;
73973;PMS5003;62336;-26.094;27.994;2023-03-04T02:14:17;48;43;
73973;PMS5003;62336;-26.094;27.994;2023-03-04T02:16:42;44;42;
73973;PMS5003;62336;-26.094;27.994;2023-03-04T02:19:10;48;44;
73973;PMS5003;62336;-26.094;27.994;2023-03-04T02:21:33;39;38;
73973;PMS5003;62336;-26.094;27.994;2023-03-04T02:24:01;47;43;
73973;PMS5003;62336;-26.094;27.994;2023-03-04T02:26:24;46;41;
73973;PMS5003;62336;-26.094;27.994;2023-03-04T02:28:49;46;45;
73973;PMS5003;62336;-26.094;27.994;2023-03-04T02:31:18;44;41;
73973;PMS5003;62336;-26.094;27.994;2023-03-04T02:33:39;44;41;
73973;PMS5003;62336;-26.094;27.994;2023-03-04T02:36:04;49;43;
73973;PMS5003;62336;-26.094;27.994;2023-03-04T02:38:30;48;45;
73973;PMS5003;62336;-26.094;27.994;2023-03-04T02:40:55;40;40;
73973;PMS5003;62336;-26.094;27.994;2023-03-04T02:43:21;43;40;
73973;PMS5003;62336;-26.094;27.994;2023-03-04T02:45:47;45;43;
73973;PMS5003;62336;-26.094;27.994;2023-03-04T02:48:12;39;37;
73973;PMS5003;62336;-26.094;27.994;2023-03-04T02:50:40;40;39;
73973;PMS5003;62336;-26.094;27.994;2023-03-04T02:53:03;52;44;
73973;PMS5003;62336;-26.094;27.994;2023-03-04T02:55:28;42;41;
73973;PMS5003;62336;-26.094;27.994;2023-03-04T02:57:53;37;37;
73973;PMS5003;62336;-26.094;27.994;2023-03-04T03:00:18;42;40;
73973;PMS5003;62336;-26.094;27.994;2023-03-04T03:02:43;37;36;
73973;PMS5003;62336;-26.094;27.994;2023-03-04T03:05:08;41;38;
73973;PMS5003;62336;-26.094;27.994;2023-03-04T03:07:34;37;35;
73973;PMS5003;62336;-26.094;27.994;2023-03-04T03:09:59;41;39;
73973;PMS5003;62336;-26.094;27.994;2023-03-04T03:12:24;42;37;
73973;PMS5003;62336;-26.094;27.994;2023-03-04T03:14:50;40;37;
73973;PMS5003;62336;-26.094;27.994;2023-03-04T03:17:15;35;32;
73973;PMS5003;62336;-26.094;27.994;2023-03-04T03:19:40;39;37;
73973;PMS5003;62336;-26.094;27.994;2023-03-04T03:22:06;45;41;
73973;PMS5003;62336;-26.094;27.994;2023-03-04T03:24:31;38;37;
73973;PMS5003;62336;-26.094;27.994;2023-03-04T03:26:56;36;34;
73973;PMS5003;62336;-26.094;27.994;2023-03-04T03:29:22;38;34;
73973;PMS5003;62336;-26.094;27.994;2023-03-04T03:31:47;37;36;
73973;PMS5003;62336;-26.094;27.994;2023-03-04T03:34:13;32;30;
73973;PMS5003;62336;-26.094;27.994;2023-03-04T03:36:38;34;31;
73973;PMS5003;62336;-26.094;27.994;2023-03-04T03:39:03;34;33;
73973;PMS5003;62336;-26.094;27.994;2023-03-04T03:41:29;34;32;
73973;PMS5003;62336;-26.094;27.994;2023-03-04T03:43:54;38;37;
73973;PMS5003;62336;-26.094;27.994;2023-03-04T03:46:20;37;35;
73973;PMS5003;62336;-26.094;27.994;2023-03-04T03:48:45;35;31;
73973;PMS5003;62336;-26.094;27.994;2023-03-04T03:51:11;39;37;
73973;PMS5003;62336;-26.094;27.994;2023-03-04T03:53:36;35;33;
73973;PMS5003;62336;-26.094;27.994;2023-03-04T03:56:01;34;32;
73973;PMS5003;62336;-26.094;27.994;2023-03-04T03:58:27;37;34;
73973;PMS5003;62336;-26.094;27.994;2023-03-04T04:00:53;30;30;
73973;PMS5003;62336;-26.094;27.994;2023-03-04T04:03:18;32;31;
73973;PMS5003;62336;-26.094;27.994;2023-03-04T04:05:44;38;35;
73973;PMS5003;62336;-26.094;27.994;2023-03-04T04:08:10;33;30;
73973;PMS5003;62336;-26.094;27.994;2023-03-04T04:10:36;35;33;
73973;PMS5003;62336;-26.094;27.994;2023-03-04T04:13:00;34;31;
73973;PMS5003;62336;-26.094;27.994;2023-03-04T04:15:26;38;34;
73973;PMS5003;62336;-26.094;27.994;2023-03-04T04:17:51;31;30;
73973;PMS5003;62336;-26.094;27.994;2023-03-04T04:20:16;37;35;
73973;PMS5003;62336;-26.094;27.994;2023-03-04T04:22:42;33;33;
73973;PMS5003;62336;-26.094;27.994;2023-03-04T04:25:07;33;30;
73973;PMS5003;62336;-26.094;27.994;2023-03-04T04:27:32;34;34;
73973;PMS5003;62336;-26.094;27.994;2023-03-04T04:29:58;33;31;
73973;PMS5003;62336;-26.094;27.994;2023-03-04T04:32:24;33;33;
73973;PMS5003;62336;-26.094;27.994;2023-03-04T04:34:49;35;33;
73973;PMS5003;62336;-26.094;27.994;2023-03-04T04:37:14;39;38;
73973;PMS5003;62336;-26.094;27.994;2023-03-04T04:39:40;31;30;
73973;PMS5003;62336;-26.094;27.994;2023-03-04T04:42:05;32;31;
73973;PMS5003;62336;-26.094;27.994;2023-03-04T04:44:31;33;32;
73973;PMS5003;62336;-26.094;27.994;2023-03-04T04:46:56;41;37;
73973;PMS5003;62336;-26.094;27.994;2023-03-04T04:49:21;37;33;
73973;PMS5003;62336;-26.094;27.994;2023-03-04T04:51:47;35;32;
73973;PMS5003;62336;-26.094;27.994;2023-03-04T04:54:12;34;32;
73973;PMS5003;62336;-26.094;27.994;2023-03-04T04:56:37;34;29;
73973;PMS5003;62336;-26.094;27.994;2023-03-04T04:59:03;36;35;
73973;PMS5003;62336;-26.094;27.994;2023-03-04T05:01:28;32;30;
73973;PMS5003;62336;-26.094;27.994;2023-03-04T05:03:53;34;32;
73973;PMS5003;62336;-26.094;27.994;2023-03-04T05:06:19;32;30;
73973;PMS5003;62336;-26.094;27.994;2023-03-04T05:08:44;39;36;
73973;PMS5003;62336;-26.094;27.994;2023-03-04T05:11:10;40;38;
73973;PMS5003;62336;-26.094;27.994;2023-03-04T05:13:36;40;40;
73973;PMS5003;62336;-26.094;27.994;2023-03-04T05:16:00;42;42;
73973;PMS5003;62336;-26.094;27.994;2023-03-04T05:18:26;45;39;
73973;PMS5003;62336;-26.094;27.994;2023-03-04T05:20:51;42;40;
73973;PMS5003;62336;-26.094;27.994;2023-03-04T05:23:16;32;31;
73973;PMS5003;62336;-26.094;27.994;2023-03-04T05:25:42;37;35;
73973;PMS5003;62336;-26.094;27.994;2023-03-04T05:28:07;37;35;
73973;PMS5003;62336;-26.094;27.994;2023-03-04T05:30:33;31;31;
73973;PMS5003;62336;-26.094;27.994;2023-03-04T05:32:58;33;32;
73973;PMS5003;62336;-26.094;27.994;2023-03-04T05:35:24;28;27;
73973;PMS5003;62336;-26.094;27.994;2023-03-04T05:37:49;26;26;
73973;PMS5003;62336;-26.094;27.994;2023-03-04T05:40:14;31;30;
73973;PMS5003;62336;-26.094;27.994;2023-03-04T05:42:40;31;30;
73973;PMS5003;62336;-26.094;27.994;2023-03-04T05:45:06;28;27;
73973;PMS5003;62336;-26.094;27.994;2023-03-04T05:47:30;26;24;
73973;PMS5003;62336;-26.094;27.994;2023-03-04T05:49:56;24;24;
73973;PMS5003;62336;-26.094;27.994;2023-03-04T05:52:21;21;20;
73973;PMS5003;62336;-26.094;27.994;2023-03-04T05:54:46;26;25;
73973;PMS5003;62336;-26.094;27.994;2023-03-04T05:57:13;27;26;
73973;PMS5003;62336;-26.094;27.994;2023-03-04T05:59:38;32;32;
73973;PMS5003;62336;-26.094;27.994;2023-03-04T06:02:04;29;27;
73973;PMS5003;62336;-26.094;27.994;2023-03-04T06:04:28;29;28;
73973;PMS5003;62336;-26.094;27.994;2023-03-04T06:06:54;28;24;
73973;PMS5003;62336;-26.094;27.994;2023-03-04T06:09:19;27;26;
73973;PMS5003;62336;-26.094;27.994;2023-03-04T06:11:44;22;22;
73973;PMS5003;62336;-26.094;27.994;2023-03-04T06:14:10;24;24;
73973;PMS5003;62336;-26.094;27.994;2023-03-04T06:16:36;28;27;
73973;PMS5003;62336;-26.094;27.994;2023-03-04T06:19:01;22;21;
73973;PMS5003;62336;-26.094;27.994;2023-03-04T06:21:26;26;24;
73973;PMS5003;62336;-26.094;27.994;2023-03-04T06:23:52;26;26;
73973;PMS5003;62336;-26.094;27.994;2023-03-04T06:26:18;27;26;
73973;PMS5003;62336;-26.094;27.994;2023-03-04T06:28:43;29;28;
73973;PMS5003;62336;-26.094;27.994;2023-03-04T06:31:09;32;31;
73973;PMS5003;62336;-26.094;27.994;2023-03-04T06:33:34;28;24;
73973;PMS5003;62336;-26.094;27.994;2023-03-04T06:35:59;28;27;
73973;PMS5003;62336;-26.094;27.994;2023-03-04T06:38:24;23;21;
73973;PMS5003;62336;-26.094;27.994;2023-03-04T06:40:50;25;25;
73973;PMS5003;62336;-26.094;27.994;2023-03-04T06:43:16;25;23;
73973;PMS5003;62336;-26.094;27.994;2023-03-04T06:45:41;27;25;
73973;PMS5003;62336;-26.094;27.994;2023-03-04T06:48:07;23;22;
73973;PMS5003;62336;-26.094;27.994;2023-03-04T06:50:32;24;23;
73973;PMS5003;62336;-26.094;27.994;2023-03-04T06:52:58;19;19;
73973;PMS5003;62336;-26.094;27.994;2023-03-04T06:55:24;17;17;
73973;PMS5003;62336;-26.094;27.994;2023-03-04T06:57:50;19;18;
73973;PMS5003;62336;-26.094;27.994;2023-03-04T07:00:15;18;16;
73973;PMS5003;62336;-26.094;27.994;2023-03-04T07:02:41;19;19;
73973;PMS5003;62336;-26.094;27.994;2023-03-04T07:05:07;16;15;
73973;PMS5003;62336;-26.094;27.994;2023-03-04T07:07:32;15;15;
73973;PMS5003;62336;-26.094;27.994;2023-03-04T07:09:58;16;16;
73973;PMS5003;62336;-26.094;27.994;2023-03-04T07:12:23;16;15;
73973;PMS5003;62336;-26.094;27.994;2023-03-04T07:14:50;16;16;
73973;PMS5003;62336;-26.094;27.994;2023-03-04T07:17:15;18;16;
73973;PMS5003;62336;-26.094;27.994;2023-03-04T07:19:41;17;17;
73973;PMS5003;62336;-26.094;27.994;2023-03-04T07:22:06;17;16;
73973;PMS5003;62336;-26.094;27.994;2023-03-04T07:24:31;20;20;
73973;PMS5003;62336;-26.094;27.994;2023-03-04T07:26:56;19;18;
73973;PMS5003;62336;-26.094;27.994;2023-03-04T07:29:23;19;19;
73973;PMS5003;62336;-26.094;27.994;2023-03-04T07:31:48;15;15;
73973;PMS5003;62336;-26.094;27.994;2023-03-04T07:34:13;22;22;
73973;PMS5003;62336;-26.094;27.994;2023-03-04T07:36:39;25;24;
73973;PMS5003;62336;-26.094;27.994;2023-03-04T07:39:05;22;22;
73973;PMS5003;62336;-26.094;27.994;2023-03-04T07:41:32;26;26;
73973;PMS5003;62336;-26.094;27.994;2023-03-04T07:43:56;25;24;
73973;PMS5003;62336;-26.094;27.994;2023-03-04T07:46:22;28;27;
73973;PMS5003;62336;-26.094;27.994;2023-03-04T07:48:48;28;27;
73973;PMS5003;62336;-26.094;27.994;2023-03-04T07:51:13;26;26;
73973;PMS5003;62336;-26.094;27.994;2023-03-04T07:53:39;36;35;
73973;PMS5003;62336;-26.094;27.994;2023-03-04T07:56:04;30;29;
73973;PMS5003;62336;-26.094;27.994;2023-03-04T07:58:29;31;29;
73973;PMS5003;62336;-26.094;27.994;2023-03-04T08:00:54;29;29;
73973;PMS5003;62336;-26.094;27.994;2023-03-04T08:03:19;26;25;
73973;PMS5003;62336;-26.094;27.994;2023-03-04T08:05:44;25;25;
73973;PMS5003;62336;-26.094;27.994;2023-03-04T08:08:12;24;24;
73973;PMS5003;62336;-26.094;27.994;2023-03-04T08:10:39;25;23;
73973;PMS5003;62336;-26.094;27.994;2023-03-04T08:13:00;24;22;
73973;PMS5003;62336;-26.094;27.994;2023-03-04T08:15:25;19;19;
73973;PMS5003;62336;-26.094;27.994;2023-03-04T08:17:52;20;19;
73973;PMS5003;62336;-26.094;27.994;2023-03-04T08:20:16;20;19;
73973;PMS5003;62336;-26.094;27.994;2023-03-04T08:22:42;19;19;
73973;PMS5003;62336;-26.094;27.994;2023-03-04T08:25:07;23;22;
73973;PMS5003;62336;-26.094;27.994;2023-03-04T08:27:32;21;20;
73973;PMS5003;62336;-26.094;27.994;2023-03-04T08:29:58;24;24;
73973;PMS5003;62336;-26.094;27.994;2023-03-04T08:32:23;19;19;
73973;PMS5003;62336;-26.094;27.994;2023-03-04T08:34:51;21;20;
73973;PMS5003;62336;-26.094;27.994;2023-03-04T08:37:15;20;20;
73973;PMS5003;62336;-26.094;27.994;2023-03-04T08:39:41;18;17;
73973;PMS5003;62336;-26.094;27.994;2023-03-04T08:42:07;20;20;
73973;PMS5003;62336;-26.094;27.994;2023-03-04T08:44:33;15;15;
73973;PMS5003;62336;-26.094;27.994;2023-03-04T08:46:58;15;15;
73973;PMS5003;62336;-26.094;27.994;2023-03-04T08:49:23;14;14;
73973;PMS5003;62336;-26.094;27.994;2023-03-04T08:51:50;13;13;
73973;PMS5003;62336;-26.094;27.994;2023-03-04T08:54:15;19;18;
73973;PMS5003;62336;-26.094;27.994;2023-03-04T08:56:41;16;16;
73973;PMS5003;62336;-26.094;27.994;2023-03-04T08:59:08;15;15;
73973;PMS5003;62336;-26.094;27.994;2023-03-04T09:01:33;13;13;
73973;PMS5003;62336;-26.094;27.994;2023-03-04T09:03:58;15;15;
73973;PMS5003;62336;-26.094;27.994;2023-03-04T09:06:24;19;17;
73973;PMS5003;62336;-26.094;27.994;2023-03-04T09:08:49;14;13;
73973;PMS5003;62336;-26.094;27.994;2023-03-04T09:11:16;16;16;
73973;PMS5003;62336;-26.094;27.994;2023-03-04T09:13:41;15;15;
73973;PMS5003;62336;-26.094;27.994;2023-03-04T09:16:08;15;15;
73973;PMS5003;62336;-26.094;27.994;2023-03-04T09:18:32;17;17;
73973;PMS5003;62336;-26.094;27.994;2023-03-04T09:20:58;13;13;
73973;PMS5003;62336;-26.094;27.994;2023-03-04T09:23:24;14;14;
73973;PMS5003;62336;-26.094;27.994;2023-03-04T09:25:49;17;15;
73973;PMS5003;62336;-26.094;27.994;2023-03-04T09:28:15;14;13;
73973;PMS5003;62336;-26.094;27.994;2023-03-04T09:30:41;15;14;
73973;PMS5003;62336;-26.094;27.994;2023-03-04T09:33:05;14;13;
73973;PMS5003;62336;-26.094;27.994;2023-03-04T09:35:31;11;11;
73973;PMS5003;62336;-26.094;27.994;2023-03-04T09:37:56;14;13;
73973;PMS5003;62336;-26.094;27.994;2023-03-04T09:40:23;10;10;
73973;PMS5003;62336;-26.094;27.994;2023-03-04T09:42:47;12;11;
73973;PMS5003;62336;-26.094;27.994;2023-03-04T09:45:14;12;12;
73973;PMS5003;62336;-26.094;27.994;2023-03-04T09:47:43;13;13;
73973;PMS5003;62336;-26.094;27.994;2023-03-04T09:50:10;11;11;
73973;PMS5003;62336;-26.094;27.994;2023-03-04T09:52:38;15;13;
73973;PMS5003;62336;-26.094;27.994;2023-03-04T09:54:56;12;12;
73973;PMS5003;62336;-26.094;27.994;2023-03-04T09:57:27;12;12;
73973;PMS5003;62336;-26.094;27.994;2023-03-04T09:59:45;12;12;
73973;PMS5003;62336;-26.094;27.994;2023-03-04T10:02:15;15;15;
73973;PMS5003;62336;-26.094;27.994;2023-03-04T10:04:36;14;13;
73973;PMS5003;62336;-26.094;27.994;2023-03-04T10:07:07;14;14;
73973;PMS5003;62336;-26.094;27.994;2023-03-04T10:09:36;13;13;
73973;PMS5003;62336;-26.094;27.994;2023-03-04T10:11:53;14;14;
73973;PMS5003;62336;-26.094;27.994;2023-03-04T10:16:43;14;14;
73973;PMS5003;62336;-26.094;27.994;2023-03-04T10:21:34;15;13;
73973;PMS5003;62336;-26.094;27.994;2023-03-04T10:23:58;11;11;
73973;PMS5003;62336;-26.094;27.994;2023-03-04T10:26:23;11;10;
73973;PMS5003;62336;-26.094;27.994;2023-03-04T10:28:49;16;14;
73973;PMS5003;62336;-26.094;27.994;2023-03-04T10:31:16;14;14;
73973;PMS5003;62336;-26.094;27.994;2023-03-04T10:33:40;16;15;
73973;PMS5003;62336;-26.094;27.994;2023-03-04T10:36:10;17;17;
73973;PMS5003;62336;-26.094;27.994;2023-03-04T10:38:30;14;13;
73973;PMS5003;62336;-26.094;27.994;2023-03-04T10:40:56;12;12;
73973;PMS5003;62336;-26.094;27.994;2023-03-04T10:43:21;13;12;
73973;PMS5003;62336;-26.094;27.994;2023-03-04T10:45:47;14;13;
73973;PMS5003;62336;-26.094;27.994;2023-03-04T10:48:17;14;13;
73973;PMS5003;62336;-26.094;27.994;2023-03-04T10:50:38;14;14;
73973;PMS5003;62336;-26.094;27.994;2023-03-04T10:53:02;10;10;
73973;PMS5003;62336;-26.094;27.994;2023-03-04T10:55:27;12;12;
73973;PMS5003;62336;-26.094;27.994;2023-03-04T10:57:53;13;13;
73973;PMS5003;62336;-26.094;27.994;2023-03-04T11:00:21;13;13;
73973;PMS5003;62336;-26.094;27.994;2023-03-04T11:02:44;12;12;
73973;PMS5003;62336;-26.094;27.994;2023-03-04T11:07:38;12;10;
73973;PMS5003;62336;-26.094;27.994;2023-03-04T11:14:51;10;9;
73973;PMS5003;62336;-26.094;27.994;2023-03-04T11:17:17;15;15;
73973;PMS5003;62336;-26.094;27.994;2023-03-04T11:19:40;13;13;
73973;PMS5003;62336;-26.094;27.994;2023-03-04T11:22:08;15;15;
73973;PMS5003;62336;-26.094;27.994;2023-03-04T11:24:31;16;16;
73973;PMS5003;62336;-26.094;27.994;2023-03-04T11:26:58;15;14;
73973;PMS5003;62336;-26.094;27.994;2023-03-04T11:29:22;14;14;
73973;PMS5003;62336;-26.094;27.994;2023-03-04T11:31:49;16;14;
73973;PMS5003;62336;-26.094;27.994;2023-03-04T11:34:14;13;12;
73973;PMS5003;62336;-26.094;27.994;2023-03-04T11:36:39;14;13;
73973;PMS5003;62336;-26.094;27.994;2023-03-04T11:39:03;16;15;
73973;PMS5003;62336;-26.094;27.994;2023-03-04T11:41:28;12;12;
73973;PMS5003;62336;-26.094;27.994;2023-03-04T11:43:53;15;14;
73973;PMS5003;62336;-26.094;27.994;2023-03-04T11:48:47;19;17;
73973;PMS5003;62336;-26.094;27.994;2023-03-04T11:51:10;16;16;
73973;PMS5003;62336;-26.094;27.994;2023-03-04T11:53:40;16;14;
73973;PMS5003;62336;-26.094;27.994;2023-03-04T11:56:03;14;14;
73973;PMS5003;62336;-26.094;27.994;2023-03-04T12:00:51;15;15;
73973;PMS5003;62336;-26.094;27.994;2023-03-04T12:03:20;18;17;
73973;PMS5003;62336;-26.094;27.994;2023-03-04T12:05:43;15;14;
73973;PMS5003;62336;-26.094;27.994;2023-03-04T12:10:32;17;17;
73973;PMS5003;62336;-26.094;27.994;2023-03-04T12:13:01;14;13;
73973;PMS5003;62336;-26.094;27.994;2023-03-04T12:15:22;13;12;
73973;PMS5003;62336;-26.094;27.994;2023-03-04T12:17:52;16;14;
73973;PMS5003;62336;-26.094;27.994;2023-03-04T12:20:17;50;49;
73973;PMS5003;62336;-26.094;27.994;2023-03-04T12:22:40;40;37;
73973;PMS5003;62336;-26.094;27.994;2023-03-04T12:27:31;29;29;
73973;PMS5003;62336;-26.094;27.994;2023-03-04T12:29:55;18;17;
73973;PMS5003;62336;-26.094;27.994;2023-03-04T12:32:21;24;24;
73973;PMS5003;62336;-26.094;27.994;2023-03-04T12:34:48;17;17;
73973;PMS5003;62336;-26.094;27.994;2023-03-04T12:37:15;16;13;
73973;PMS5003;62336;-26.094;27.994;2023-03-04T12:39:36;44;44;
73973;PMS5003;62336;-26.094;27.994;2023-03-04T12:42:03;11;10;
73973;PMS5003;62336;-26.094;27.994;2023-03-04T12:44:25;15;14;
73973;PMS5003;62336;-26.094;27.994;2023-03-04T12:47:01;13;13;
73973;PMS5003;62336;-26.094;27.994;2023-03-04T12:49:25;14;12;
73973;PMS5003;62336;-26.094;27.994;2023-03-04T12:51:43;11;11;
73973;PMS5003;62336;-26.094;27.994;2023-03-04T12:54:10;11;10;
73973;PMS5003;62336;-26.094;27.994;2023-03-04T12:56:35;11;11;
73973;PMS5003;62336;-26.094;27.994;2023-03-04T12:58:57;12;11;
73973;PMS5003;62336;-26.094;27.994;2023-03-04T13:01:23;11;10;
73973;PMS5003;62336;-26.094;27.994;2023-03-04T13:03:50;12;11;
73973;PMS5003;62336;-26.094;27.994;2023-03-04T13:06:13;14;14;
73973;PMS5003;62336;-26.094;27.994;2023-03-04T13:08:39;15;14;
73973;PMS5003;62336;-26.094;27.994;2023-03-04T13:11:31;15;14;
73973;PMS5003;62336;-26.094;27.994;2023-03-04T13:13:36;28;26;
73973;PMS5003;62336;-26.094;27.994;2023-03-04T13:20:44;14;13;
73973;PMS5003;62336;-26.094;27.994;2023-03-04T13:25:37;11;11;
73973;PMS5003;62336;-26.094;27.994;2023-03-04T13:32:51;15;12;
73973;PMS5003;62336;-26.094;27.994;2023-03-04T13:37:42;12;12;
73973;PMS5003;62336;-26.094;27.994;2023-03-04T13:42:37;14;14;
73973;PMS5003;62336;-26.094;27.994;2023-03-04T13:44:58;12;12;
73973;PMS5003;62336;-26.094;27.994;2023-03-04T13:47:26;12;11;
73973;PMS5003;62336;-26.094;27.994;2023-03-04T13:49:48;14;13;
73973;PMS5003;62336;-26.094;27.994;2023-03-04T13:54:38;13;13;
73973;PMS5003;62336;-26.094;27.994;2023-03-04T13:57:15;14;13;
73973;PMS5003;62336;-26.094;27.994;2023-03-04T13:59:28;13;13;
73973;PMS5003;62336;-26.094;27.994;2023-03-04T14:01:55;11;11;
73973;PMS5003;62336;-26.094;27.994;2023-03-04T14:04:19;12;12;
73973;PMS5003;62336;-26.094;27.994;2023-03-04T14:06:45;8;8;
73973;PMS5003;62336;-26.094;27.994;2023-03-04T14:09:14;11;10;
73973;PMS5003;62336;-26.094;27.994;2023-03-04T14:11:43;12;12;
73973;PMS5003;62336;-26.094;27.994;2023-03-04T14:14:04;9;8;
73973;PMS5003;62336;-26.094;27.994;2023-03-04T14:16:29;8;8;
73973;PMS5003;62336;-26.094;27.994;2023-03-04T14:19:00;8;8;
73973;PMS5003;62336;-26.094;27.994;2023-03-04T14:21:17;9;8;
73973;PMS5003;62336;-26.094;27.994;2023-03-04T14:23:41;9;9;
73973;PMS5003;62336;-26.094;27.994;2023-03-04T14:26:08;8;8;
73973;PMS5003;62336;-26.094;27.994;2023-03-04T14:28:36;9;9;
73973;PMS5003;62336;-26.094;27.994;2023-03-04T14:30:57;7;7;
73973;PMS5003;62336;-26.094;27.994;2023-03-04T14:33:23;10;10;
73973;PMS5003;62336;-26.094;27.994;2023-03-04T14:35:50;7;6;
73973;PMS5003;62336;-26.094;27.994;2023-03-04T14:38:15;8;8;
73973;PMS5003;62336;-26.094;27.994;2023-03-04T14:40:37;7;7;
73973;PMS5003;62336;-26.094;27.994;2023-03-04T14:43:03;7;7;
73973;PMS5003;62336;-26.094;27.994;2023-03-04T14:45:27;8;8;
73973;PMS5003;62336;-26.094;27.994;2023-03-04T14:47:53;8;7;
73973;PMS5003;62336;-26.094;27.994;2023-03-04T14:50:18;9;9;
73973;PMS5003;62336;-26.094;27.994;2023-03-04T14:52:42;8;8;
73973;PMS5003;62336;-26.094;27.994;2023-03-04T14:57:39;10;10;
73973;PMS5003;62336;-26.094;27.994;2023-03-04T15:02:25;9;9;
73973;PMS5003;62336;-26.094;27.994;2023-03-04T15:04:49;10;10;
73973;PMS5003;62336;-26.094;27.994;2023-03-04T15:07:14;9;9;
73973;PMS5003;62336;-26.094;27.994;2023-03-04T15:09:42;11;11;
73973;PMS5003;62336;-26.094;27.994;2023-03-04T15:12:05;10;9;
73973;PMS5003;62336;-26.094;27.994;2023-03-04T15:16:55;10;10;
73973;PMS5003;62336;-26.094;27.994;2023-03-04T15:19:24;11;10;
73973;PMS5003;62336;-26.094;27.994;2023-03-04T15:21:44;11;9;
73973;PMS5003;62336;-26.094;27.994;2023-03-04T15:24:09;14;11;
73973;PMS5003;62336;-26.094;27.994;2023-03-04T15:26:36;8;8;
73973;PMS5003;62336;-26.094;27.994;2023-03-04T15:29:00;10;9;
73973;PMS5003;62336;-26.094;27.994;2023-03-04T15:31:24;11;11;
73973;PMS5003;62336;-26.094;27.994;2023-03-04T15:33:49;12;12;
73973;PMS5003;62336;-26.094;27.994;2023-03-04T15:36:16;9;9;
73973;PMS5003;62336;-26.094;27.994;2023-03-04T15:38:40;7;6;
73973;PMS5003;62336;-26.094;27.994;2023-03-04T15:41:07;9;7;
73973;PMS5003;62336;-26.094;27.994;2023-03-04T15:43:31;9;8;
73973;PMS5003;62336;-26.094;27.994;2023-03-04T15:45:55;8;8;
73973;PMS5003;62336;-26.094;27.994;2023-03-04T15:48:21;7;7;
73973;PMS5003;62336;-26.094;27.994;2023-03-04T15:50:48;7;7;
73973;PMS5003;62336;-26.094;27.994;2023-03-04T15:53:14;7;7;
73973;PMS5003;62336;-26.094;27.994;2023-03-04T15:55:38;5;5;
73973;PMS5003;62336;-26.094;27.994;2023-03-04T15:58:03;9;9;
73973;PMS5003;62336;-26.094;27.994;2023-03-04T16:00:28;7;7;
73973;PMS5003;62336;-26.094;27.994;2023-03-04T16:02:53;9;8;
73973;PMS5003;62336;-26.094;27.994;2023-03-04T16:05:19;7;7;
73973;PMS5003;62336;-26.094;27.994;2023-03-04T16:07:44;8;7;
73973;PMS5003;62336;-26.094;27.994;2023-03-04T16:10:12;8;7;
73973;PMS5003;62336;-26.094;27.994;2023-03-04T16:12:35;9;8;
73973;PMS5003;62336;-26.094;27.994;2023-03-04T16:15:00;7;7;
73973;PMS5003;62336;-26.094;27.994;2023-03-04T16:17:25;9;7;
73973;PMS5003;62336;-26.094;27.994;2023-03-04T16:19:51;9;8;
73973;PMS5003;62336;-26.094;27.994;2023-03-04T16:22:18;7;7;
73973;PMS5003;62336;-26.094;27.994;2023-03-04T16:24:41;7;7;